Time;durP1;ratioP1;P1;durP2;ratioP2;P2;SDS_P1;SDS_P2;PMS_P1;PMS_P2;Temp;Humidity;BMP_temperature;BMP_pressure;BME280_temperature;BME280_humidity;BME280_pressure;Samples;Min_cycle;Max_cycle;Signal;HPM_P1;HPM_P2
2022/12/15 00:38:41;;;;;;;11.32;7.53;;;;;;;10.08;63.59;99240.88;4994696;28;20038;-86
2022/12/15 00:41:11;;;;;;;11.60;7.70;;;;;;;10.05;63.69;99241.13;4995163;28;20046;-86
2022/12/15 00:43:39;;;;;;;12.02;8.02;;;;;;;10.03;63.37;99243.03;4994782;28;20046;-85
2022/12/15 00:48:54;;;;;;;12.05;7.70;;;;;;;9.97;63.52;99239.00;4994864;28;20042;-86
2022/12/15 01:21:48;;;;;;;12.20;7.53;;;;;;;11.36;63.74;99236.34;4975294;28;20050;-85
2022/12/15 01:24:16;;;;;;;11.45;7.38;;;;;;;11.51;63.54;99223.63;4975753;28;20046;-85
2022/12/15 01:26:45;;;;;;;11.88;7.55;;;;;;;11.65;63.12;99223.34;4975282;28;20110;-85
2022/12/15 01:29:14;;;;;;;12.35;8.07;;;;;;;11.76;63.10;99227.81;4977798;28;20523;-85
2022/12/15 01:31:42;;;;;;;10.27;6.93;;;;;;;11.83;62.93;99231.72;4962277;28;20046;-86
2022/12/15 01:34:11;;;;;;;11.27;7.15;;;;;;;11.89;62.98;99230.38;4979395;28;20058;-85
2022/12/15 01:36:39;;;;;;;10.32;7.03;;;;;;;11.91;62.76;99233.78;4979537;28;20101;-85
2022/12/15 01:39:07;;;;;;;11.98;7.68;;;;;;;11.91;62.65;99236.44;4979612;28;20043;-85
2022/12/15 01:41:35;;;;;;;10.77;7.15;;;;;;;11.90;62.67;99232.94;4979903;28;20101;-85
2022/12/15 01:44:19;;;;;;;10.63;7.50;;;;;;;11.88;62.77;99231.38;4979356;28;20427;-85
2022/12/15 01:46:51;;;;;;;12.38;7.75;;;;;;;11.84;62.92;99230.75;4979993;28;20118;-85
2022/12/15 01:49:24;;;;;;;10.73;7.22;;;;;;;11.80;62.85;99223.97;4979318;28;20051;-85
2022/12/15 01:51:57;;;;;;;10.95;7.20;;;;;;;11.77;62.67;99224.16;4979506;28;20105;-85
2022/12/15 01:54:29;;;;;;;11.77;7.75;;;;;;;11.73;63.08;99222.72;4978253;28;20055;-85
2022/12/15 01:57:02;;;;;;;12.02;7.82;;;;;;;11.69;62.92;99215.94;4979323;28;20047;-85
2022/12/15 01:59:35;;;;;;;12.27;7.80;;;;;;;11.65;63.06;99214.47;4979407;28;20100;-86
2022/12/15 02:02:03;;;;;;;9.75;7.18;;;;;;;11.61;63.06;99232.59;4979570;28;20159;-86
2022/12/15 02:04:33;;;;;;;13.25;8.10;;;;;;;11.58;63.06;99234.63;4979796;28;20101;-86
2022/12/15 02:07:01;;;;;;;12.57;7.72;;;;;;;11.53;62.98;99237.69;4962015;28;20413;-86
2022/12/15 02:09:30;;;;;;;13.10;7.85;;;;;;;11.49;63.14;99236.25;4979680;28;20073;-86
2022/12/15 02:12:10;;;;;;;12.18;7.82;;;;;;;11.45;63.25;99237.44;4979196;28;20454;-86
2022/12/15 02:14:50;;;;;;;11.35;7.35;;;;;;;11.40;62.97;99224.47;4979238;28;20062;-85
2022/12/15 02:17:29;;;;;;;11.75;7.82;;;;;;;11.36;62.98;99225.69;4979161;28;20078;-85
2022/12/15 02:20:35;;;;;;;12.43;7.65;;;;;;;11.29;63.02;99229.81;4979076;28;20057;-85
2022/12/15 02:23:28;;;;;;;13.38;8.07;;;;;;;11.26;62.78;99234.53;4978996;28;20066;-85
2022/12/15 02:26:28;;;;;;;12.75;7.80;;;;;;;11.23;62.91;99234.78;4979460;28;20046;-85
2022/12/15 02:29:09;;;;;;;12.27;8.00;;;;;;;11.17;62.97;99228.94;4961532;28;20422;-86
2022/12/15 02:31:52;;;;;;;11.68;7.70;;;;;;;11.14;63.19;99241.69;4978609;28;20406;-86
2022/12/15 02:34:27;;;;;;;12.18;7.50;;;;;;;11.09;63.20;99225.19;4979494;28;20449;-86
2022/12/15 02:36:59;;;;;;;11.55;8.10;;;;;;;11.05;62.76;99231.75;4978342;28;20047;-86
2022/12/15 02:39:29;;;;;;;10.45;7.15;;;;;;;11.00;62.72;99233.91;4978342;28;20421;-86
2022/12/15 02:41:57;;;;;;;9.93;6.78;;;;;;;10.96;62.40;99232.47;4977949;28;20101;-86
2022/12/15 02:44:30;;;;;;;11.07;7.47;;;;;;;10.91;62.62;99243.50;4978395;28;20058;-85
2022/12/15 02:47:17;;;;;;;11.27;7.45;;;;;;;10.85;62.34;99242.16;4978508;28;20057;-86
2022/12/15 02:50:00;;;;;;;13.10;8.07;;;;;;;10.82;62.47;99247.72;4978265;28;20437;-85
2022/12/15 02:52:43;;;;;;;16.88;9.88;;;;;;;10.77;62.52;99243.69;4960756;28;20057;-86
2022/12/15 02:55:20;;;;;;;17.73;10.05;;;;;;;10.73;62.11;99253.78;4978496;28;20047;-86
2022/12/15 02:57:54;;;;;;;20.95;11.75;;;;;;;10.69;62.07;99260.28;4978635;28;20051;-85
2022/12/15 03:00:23;;;;;;;17.58;10.50;;;;;;;10.67;62.15;99248.03;4978327;28;20043;-85
2022/12/15 03:02:55;;;;;;;17.52;10.07;;;;;;;10.63;61.98;99247.44;4978185;28;20429;-86
2022/12/15 03:05:24;;;;;;;20.15;11.13;;;;;;;10.61;62.17;99246.69;4971799;28;20110;-84
2022/12/15 03:07:54;;;;;;;19.02;10.23;;;;;;;10.57;61.73;99242.56;4977788;28;20079;-85
2022/12/15 03:10:24;;;;;;;18.30;10.32;;;;;;;10.54;62.27;99256.97;4978221;28;20054;-85
2022/12/15 03:12:53;;;;;;;16.70;10.43;;;;;;;10.52;62.40;99258.06;4978125;28;20043;-86
2022/12/15 03:15:21;;;;;;;18.13;10.95;;;;;;;10.49;62.13;99263.63;4978010;28;20050;-85
2022/12/15 03:17:49;;;;;;;17.40;10.88;;;;;;;10.46;62.51;99261.19;4977960;28;20039;-86
2022/12/15 03:20:19;;;;;;;17.70;10.07;;;;;;;10.41;62.40;99255.34;4960760;28;20105;-86
2022/12/15 03:22:47;;;;;;;17.35;9.40;;;;;;;10.39;62.57;99271.47;4978108;28;20070;-86
2022/12/15 03:25:15;;;;;;;16.45;10.05;;;;;;;10.33;62.77;99263.94;4978634;28;20077;-86
2022/12/15 03:27:46;;;;;;;16.55;9.50;;;;;;;10.34;62.75;99270.13;4977898;28;20477;-86
2022/12/15 03:30:14;;;;;;;17.08;10.18;;;;;;;10.31;62.79;99276.50;4978183;28;20046;-86
2022/12/15 03:32:42;;;;;;;15.07;9.20;;;;;;;10.27;62.87;99273.22;4976909;28;20097;-86
2022/12/15 03:35:11;;;;;;;16.27;9.82;;;;;;;10.25;63.05;99269.84;4977796;28;20053;-86
2022/12/15 03:37:42;;;;;;;14.85;9.32;;;;;;;10.22;62.99;99279.84;4977717;28;20050;-85
2022/12/15 03:40:12;;;;;;;16.75;10.13;;;;;;;10.18;62.96;99273.88;4960789;28;20051;-85
2022/12/15 03:42:49;;;;;;;15.25;9.40;;;;;;;10.16;63.11;99280.28;4977585;28;20075;-85
2022/12/15 03:45:19;;;;;;;18.42;10.15;;;;;;;10.14;63.22;99260.91;4969603;28;20094;-84
2022/12/15 03:47:49;;;;;;;15.85;9.80;;;;;;;10.11;63.03;99261.97;4959999;28;20081;-86
2022/12/15 03:50:20;;;;;;;15.30;9.93;;;;;;;10.10;63.28;99264.75;4977378;28;20050;-85
2022/12/15 03:52:52;;;;;;;16.58;10.07;;;;;;;10.06;63.07;99263.28;4976732;28;20042;-85
2022/12/15 03:55:21;;;;;;;14.68;9.00;;;;;;;10.03;63.24;99272.31;4970044;28;20051;-85
2022/12/15 03:57:50;;;;;;;16.45;9.27;;;;;;;10.01;62.99;99279.59;4959699;28;20137;-85
2022/12/15 04:00:19;;;;;;;13.75;9.13;;;;;;;10.01;63.03;99287.59;4977184;28;20121;-85
2022/12/15 04:02:49;;;;;;;17.15;9.75;;;;;;;10.04;63.20;99282.06;4977116;28;20490;-84
2022/12/15 04:05:20;;;;;;;17.92;10.57;;;;;;;10.15;63.87;99284.78;4977195;28;20042;-85
2022/12/15 04:07:48;;;;;;;17.73;10.50;;;;;;;10.36;64.03;99303.69;4960207;28;20482;-87
2022/12/15 04:10:18;;;;;;;14.60;9.65;;;;;;;10.54;63.95;99302.31;4976857;28;20058;-86
2022/12/15 04:12:46;;;;;;;16.92;10.40;;;;;;;10.71;63.82;99298.38;4977361;28;20047;-86
2022/12/15 04:15:14;;;;;;;16.13;10.05;;;;;;;10.88;63.65;99289.91;4977117;28;20482;-86
2022/12/15 04:17:43;;;;;;;16.42;10.13;;;;;;;11.05;63.38;99287.78;4977214;28;20116;-85
2022/12/15 04:20:10;;;;;;;16.75;9.98;;;;;;;11.21;63.23;99285.63;4976815;28;20049;-85
2022/12/15 04:22:40;;;;;;;16.95;10.43;;;;;;;11.38;63.03;99295.81;4976909;28;20050;-85
2022/12/15 05:32:07;;;;;;;15.27;9.40;;;;;;;14.20;59.91;99383.72;4987050;28;20039;-85
2022/12/15 05:34:37;;;;;;;13.85;9.07;;;;;;;14.23;59.96;99377.22;4988431;28;20051;-84
2022/12/15 05:37:06;;;;;;;14.43;9.45;;;;;;;14.23;60.02;99383.44;4990786;28;20042;-86
2022/12/15 05:39:34;;;;;;;16.50;9.52;;;;;;;14.26;59.84;99412.66;4987820;28;20105;-87
2022/12/15 05:42:03;;;;;;;15.05;9.23;;;;;;;14.25;59.76;99402.91;4978243;28;20490;-86
2022/12/15 05:44:31;;;;;;;16.13;9.98;;;;;;;14.24;59.87;99401.22;4976032;28;20057;-86
2022/12/15 05:46:59;;;;;;;15.20;9.93;;;;;;;14.28;59.88;99405.34;4976300;28;20397;-88
2022/12/15 05:49:27;;;;;;;15.57;10.00;;;;;;;14.31;59.80;99399.69;4976111;28;20098;-85
2022/12/15 05:51:57;;;;;;;15.20;9.60;;;;;;;14.33;59.73;99411.13;4977342;28;20042;-86
2022/12/15 05:54:25;;;;;;;14.82;9.95;;;;;;;14.33;59.84;99429.91;4975923;28;20051;-85
2022/12/15 05:56:53;;;;;;;15.38;9.95;;;;;;;14.32;59.81;99438.94;4958902;28;20051;-86
2022/12/15 05:59:21;;;;;;;14.60;9.63;;;;;;;14.29;59.86;99441.91;4977037;28;20525;-86
2022/12/15 06:01:50;;;;;;;15.95;10.30;;;;;;;14.24;60.03;99444.13;4977867;28;20043;-87
2022/12/15 06:04:18;;;;;;;14.48;9.90;;;;;;;14.25;60.01;99453.03;4977643;28;20085;-88
2022/12/15 06:06:46;;;;;;;13.88;9.25;;;;;;;14.30;59.93;99464.22;4975665;28;20074;-86
2022/12/15 06:09:16;;;;;;;15.00;9.30;;;;;;;14.39;59.98;99465.25;4977837;28;20051;-86
2022/12/15 06:11:45;;;;;;;14.68;9.90;;;;;;;14.49;59.73;99458.09;4964827;28;20043;-85
2022/12/15 06:14:13;;;;;;;14.07;9.63;;;;;;;14.57;59.41;99460.94;4980331;28;20051;-84
2022/12/15 06:16:41;;;;;;;14.68;9.15;;;;;;;14.61;59.56;99473.09;4978710;28;20478;-85
2022/12/15 06:19:19;;;;;;;14.93;9.82;;;;;;;14.60;59.29;99477.63;4978427;28;20043;-85
2022/12/15 06:21:47;;;;;;;16.67;10.25;;;;;;;14.59;59.38;99470.56;4978819;28;20480;-87
2022/12/15 06:24:17;;;;;;;16.23;10.02;;;;;;;14.54;59.31;99478.16;4978356;28;20447;-87
2022/12/15 06:26:45;;;;;;;15.18;9.90;;;;;;;14.48;59.54;99477.88;4978545;28;20093;-85
2022/12/15 06:29:17;;;;;;;14.82;9.80;;;;;;;14.42;59.48;99483.75;4978554;28;20394;-87
2022/12/15 06:31:45;;;;;;;14.02;9.43;;;;;;;14.37;59.69;99491.31;4978486;28;20054;-87
2022/12/15 06:34:15;;;;;;;15.30;10.32;;;;;;;14.29;59.86;99494.72;4978410;28;20145;-87
2022/12/15 06:36:44;;;;;;;15.68;10.40;;;;;;;14.22;60.06;99504.25;4978159;28;20047;-86
2022/12/15 06:39:13;;;;;;;15.52;9.88;;;;;;;14.14;59.99;99512.97;4977791;28;20034;-86
2022/12/15 06:41:44;;;;;;;16.90;10.38;;;;;;;14.07;60.05;99510.94;4978138;28;20049;-87
2022/12/15 06:44:14;;;;;;;15.43;10.20;;;;;;;13.99;60.23;99506.22;4961218;28;20340;-86
2022/12/15 06:46:44;;;;;;;17.77;10.63;;;;;;;13.90;60.36;99494.50;4978594;28;20043;-86
2022/12/15 06:49:13;;;;;;;16.23;10.13;;;;;;;13.83;60.39;99504.03;4977782;28;20046;-86
2022/12/15 06:51:42;;;;;;;16.60;10.10;;;;;;;13.78;60.39;99508.09;4977669;28;20050;-86
2022/12/15 06:54:11;;;;;;;13.95;10.13;;;;;;;13.71;60.49;99516.66;4981877;28;20054;-87
2022/12/15 06:56:39;;;;;;;14.57;10.10;;;;;;;13.65;60.24;99522.53;4960594;28;20051;-86
2022/12/15 06:59:11;;;;;;;14.90;9.82;;;;;;;13.58;60.52;99532.06;4977838;28;20410;-87
2022/12/15 07:01:40;;;;;;;16.67;10.68;;;;;;;13.51;60.55;99530.88;4977437;28;20043;-86
2022/12/15 07:04:10;;;;;;;15.73;10.23;;;;;;;13.46;60.38;99533.09;4977341;28;20043;-87
2022/12/15 07:06:39;;;;;;;14.75;10.25;;;;;;;13.39;60.52;99522.03;4977746;28;20047;-86
2022/12/15 07:09:12;;;;;;;15.80;10.02;;;;;;;13.33;60.46;99517.19;4977162;28;20123;-86
2022/12/15 07:11:41;;;;;;;15.75;10.27;;;;;;;13.29;60.64;99541.66;4987056;28;20045;-86
2022/12/15 07:14:11;;;;;;;17.10;10.68;;;;;;;13.26;60.92;99563.34;4979252;28;20043;-86
2022/12/15 07:16:39;;;;;;;18.58;11.25;;;;;;;13.33;60.92;99553.84;4996803;28;20544;-87
2022/12/15 07:19:12;;;;;;;17.60;10.18;;;;;;;13.44;60.71;99546.63;4997403;28;20050;-86
2022/12/15 07:21:41;;;;;;;16.50;10.07;;;;;;;13.58;60.52;99558.00;4993967;28;20121;-87
2022/12/15 07:24:11;;;;;;;17.27;10.70;;;;;;;13.69;60.24;99564.16;4996941;28;20046;-86
2022/12/15 07:26:39;;;;;;;16.92;10.80;;;;;;;13.79;60.10;99566.06;4978663;28;20072;-86
2022/12/15 07:29:08;;;;;;;15.85;10.60;;;;;;;13.90;59.98;99566.03;4996346;28;20043;-86
2022/12/15 07:31:37;;;;;;;15.73;10.75;;;;;;;13.99;59.73;99581.31;4996900;28;20404;-84
2022/12/15 07:34:06;;;;;;;16.23;10.57;;;;;;;14.09;59.47;99574.22;4997042;28;20055;-86
2022/12/15 07:36:34;;;;;;;17.20;10.88;;;;;;;14.19;59.47;99575.13;4979522;28;20081;-85
2022/12/15 07:39:02;;;;;;;17.48;11.07;;;;;;;14.29;59.34;99570.66;4979060;28;20497;-85
2022/12/15 07:41:31;;;;;;;14.82;9.98;;;;;;;14.39;59.29;99580.59;4996468;28;20058;-85
2022/12/15 07:44:01;;;;;;;17.45;10.45;;;;;;;14.49;59.08;99587.75;4986565;28;20047;-85
2022/12/15 07:46:29;;;;;;;15.15;10.55;;;;;;;14.58;59.09;99586.09;4996080;28;20046;-86
2022/12/15 07:48:58;;;;;;;17.25;11.07;;;;;;;14.69;58.85;99585.16;4995730;28;20042;-85
2022/12/15 07:51:27;;;;;;;17.00;10.80;;;;;;;14.78;58.79;99577.16;4977819;28;20485;-85
2022/12/15 07:53:55;;;;;;;17.75;10.73;;;;;;;14.92;58.81;99586.66;4979031;28;20105;-85
2022/12/15 07:56:24;;;;;;;15.10;10.40;;;;;;;15.01;58.66;99593.06;4996439;28;20050;-85
2022/12/15 07:58:52;;;;;;;14.55;9.90;;;;;;;15.16;58.48;99586.31;4995879;28;20038;-86
2022/12/15 08:01:20;;;;;;;15.95;10.40;;;;;;;15.26;58.37;99597.94;4978831;28;20047;-86
2022/12/15 08:03:49;;;;;;;15.88;10.27;;;;;;;15.36;58.27;99595.28;4996340;28;20043;-86
2022/12/15 08:06:18;;;;;;;17.15;10.65;;;;;;;15.39;58.04;99593.16;4996740;28;20062;-86
2022/12/15 08:08:48;;;;;;;15.95;10.27;;;;;;;15.42;57.98;99592.84;4996274;28;20145;-86
2022/12/15 08:11:20;;;;;;;14.77;9.80;;;;;;;15.41;58.06;99588.47;4992823;28;20081;-83
2022/12/15 08:13:49;;;;;;;15.63;9.73;;;;;;;15.39;58.05;99600.34;4996838;28;20056;-85
2022/12/15 08:16:37;;;;;;;16.80;10.63;;;;;;;15.33;58.08;99604.44;4991497;28;20045;-86
2022/12/15 08:19:09;;;;;;;14.93;10.18;;;;;;;15.27;58.34;99615.75;4995514;28;20061;-87
2022/12/15 08:21:39;;;;;;;15.93;10.43;;;;;;;15.19;58.48;99623.66;4995913;28;20053;-85
2022/12/15 08:24:07;;;;;;;15.50;10.45;;;;;;;15.12;58.50;99633.22;4995868;28;20042;-84
2022/12/15 08:26:37;;;;;;;17.20;10.73;;;;;;;15.05;58.57;99632.91;4995967;28;20540;-84
2022/12/15 08:29:07;;;;;;;14.73;10.20;;;;;;;15.00;58.52;99634.31;4995003;28;20048;-84
2022/12/15 08:31:56;;;;;;;16.13;10.77;;;;;;;14.90;58.83;99639.66;4995629;28;20045;-84
2022/12/15 08:34:24;;;;;;;16.55;10.70;;;;;;;14.84;58.85;99634.81;4995610;28;20061;-85
2022/12/15 08:36:54;;;;;;;17.15;10.93;;;;;;;14.76;58.97;99648.91;4995506;28;20054;-85
2022/12/15 08:39:22;;;;;;;16.95;10.65;;;;;;;14.70;58.93;99654.81;4995652;28;20096;-84
2022/12/15 08:41:50;;;;;;;17.40;10.82;;;;;;;14.63;59.08;99650.94;4978070;28;20057;-84
2022/12/15 08:44:18;;;;;;;17.92;10.25;;;;;;;14.55;59.09;99642.72;4988218;28;20066;-86
2022/12/15 08:46:47;;;;;;;15.98;10.32;;;;;;;14.49;59.24;99635.22;4995122;28;20077;-85
2022/12/15 08:49:15;;;;;;;16.83;10.90;;;;;;;14.42;59.29;99644.72;4995153;28;20552;-85
2022/12/15 08:51:49;;;;;;;16.45;10.27;;;;;;;14.32;59.30;99644.66;4977999;28;20054;-85
2022/12/15 08:54:20;;;;;;;17.52;10.95;;;;;;;14.28;59.33;99657.50;4995064;28;20049;-85
2022/12/15 08:56:49;;;;;;;14.57;10.27;;;;;;;14.22;59.26;99660.69;4978113;28;20070;-85
2022/12/15 08:59:17;;;;;;;18.20;10.90;;;;;;;14.16;59.25;99677.28;4986926;28;20042;-84
2022/12/15 09:01:46;;;;;;;15.93;11.02;;;;;;;14.11;59.36;99668.78;4978189;28;20142;-85
2022/12/15 09:04:15;;;;;;;18.10;11.35;;;;;;;14.09;59.62;99675.25;4994992;28;20074;-85
2022/12/15 09:06:44;;;;;;;16.25;10.57;;;;;;;14.02;59.36;99675.78;4995107;28;20057;-85
2022/12/15 09:09:19;;;;;;;16.33;10.82;;;;;;;13.96;59.28;99678.09;4995269;28;20045;-85
2022/12/15 09:11:48;;;;;;;16.33;10.73;;;;;;;13.89;59.45;99663.50;4995231;28;20501;-84
2022/12/15 09:14:17;;;;;;;17.10;10.68;;;;;;;13.83;59.45;99667.56;4995338;28;20494;-85
2022/12/15 09:16:52;;;;;;;16.42;11.02;;;;;;;13.78;59.43;99660.84;4978649;28;20047;-85
2022/12/15 09:19:20;;;;;;;17.15;11.15;;;;;;;13.69;59.61;99663.31;4995901;28;20038;-85
2022/12/15 09:21:48;;;;;;;17.90;10.90;;;;;;;13.63;59.50;99663.84;4996115;28;20101;-85
2022/12/15 09:24:17;;;;;;;16.13;10.35;;;;;;;13.58;59.55;99662.50;4995502;28;20052;-85
2022/12/15 09:27:03;;;;;;;15.50;10.32;;;;;;;13.52;59.42;99666.56;4996115;28;20046;-85
2022/12/15 09:29:31;;;;;;;16.83;10.65;;;;;;;13.46;59.57;99664.34;4977927;28;20078;-86
2022/12/15 09:31:59;;;;;;;16.35;10.80;;;;;;;13.41;59.36;99671.91;4994779;28;20509;-85
2022/12/15 09:34:28;;;;;;;17.02;10.68;;;;;;;13.35;59.33;99664.38;4995185;28;20133;-85
2022/12/15 09:36:57;;;;;;;17.30;11.23;;;;;;;13.30;59.47;99671.91;4995283;28;20097;-85
2022/12/15 09:39:28;;;;;;;18.05;11.43;;;;;;;13.25;59.46;99668.78;4994442;28;20066;-86
2022/12/15 09:42:00;;;;;;;17.33;10.48;;;;;;;13.17;59.43;99666.69;4977983;28;20061;-85
2022/12/15 09:44:33;;;;;;;16.33;11.02;;;;;;;13.12;59.58;99668.84;4996780;28;20046;-86
2022/12/15 09:47:10;;;;;;;19.65;11.93;;;;;;;13.06;59.41;99654.16;4995915;28;20043;-86
2022/12/15 09:49:48;;;;;;;18.98;11.70;;;;;;;13.02;59.33;99667.88;4997273;28;20469;-85
2022/12/15 09:52:18;;;;;;;18.65;11.65;;;;;;;12.98;59.21;99661.09;4972755;28;20050;-85
2022/12/15 09:54:46;;;;;;;18.10;11.32;;;;;;;12.93;59.21;99664.13;4998144;28;20047;-85
2022/12/15 09:57:24;;;;;;;18.77;11.80;;;;;;;12.90;59.33;99654.50;4997993;28;20050;-85
2022/12/15 10:00:06;;;;;;;17.90;11.05;;;;;;;12.86;59.08;99655.75;4980284;28;20046;-85
2022/12/15 10:02:55;;;;;;;18.20;10.93;;;;;;;12.82;59.29;99653.41;4998004;28;20042;-85
2022/12/15 10:05:37;;;;;;;20.80;12.50;;;;;;;12.78;59.21;99651.97;4997724;28;20054;-86
2022/12/15 10:08:30;;;;;;;19.23;11.82;;;;;;;12.73;59.26;99662.16;4997556;28;20512;-86
2022/12/15 10:11:00;;;;;;;19.33;11.85;;;;;;;12.71;59.11;99666.78;4993762;28;20050;-85
2022/12/15 10:13:38;;;;;;;18.52;11.35;;;;;;;12.61;59.09;99669.31;4997220;28;20057;-85
2022/12/15 10:16:19;;;;;;;17.33;11.65;;;;;;;12.57;59.33;99682.09;4979869;28;20104;-85
2022/12/15 10:19:00;;;;;;;19.60;11.73;;;;;;;12.52;59.20;99672.72;4997499;28;20516;-85
2022/12/15 10:21:31;;;;;;;19.77;11.95;;;;;;;12.48;59.24;99674.78;4997283;28;20504;-85
2022/12/15 10:24:10;;;;;;;19.83;12.60;;;;;;;12.46;59.32;99671.38;4997417;28;20046;-85
2022/12/15 10:26:41;;;;;;;19.52;12.50;;;;;;;12.43;59.47;99668.91;4997348;28;20077;-85
2022/12/15 10:29:21;;;;;;;21.10;11.82;;;;;;;12.39;59.50;99670.13;4997470;28;20133;-85
2022/12/15 10:31:55;;;;;;;22.05;13.18;;;;;;;12.36;59.20;99669.53;4996949;28;20457;-86
2022/12/15 10:34:28;;;;;;;19.27;11.93;;;;;;;12.32;59.41;99663.56;4997157;28;20074;-84
2022/12/15 10:36:57;;;;;;;18.20;11.60;;;;;;;12.27;59.35;99666.59;4996878;28;20038;-85
2022/12/15 10:39:38;;;;;;;20.50;12.30;;;;;;;12.25;59.34;99659.63;4997293;28;20104;-85
2022/12/15 10:42:12;;;;;;;19.35;12.18;;;;;;;12.22;59.53;99659.88;4979306;28;20046;-85
2022/12/15 10:44:43;;;;;;;20.95;11.93;;;;;;;12.18;59.46;99661.94;4997221;28;20057;-85
2022/12/15 10:47:21;;;;;;;20.33;12.65;;;;;;;12.14;59.46;99655.09;4997016;28;20048;-85
2022/12/15 10:50:17;;;;;;;19.88;11.88;;;;;;;12.10;59.70;99660.81;4996486;28;20105;-85
2022/12/15 10:52:51;;;;;;;21.20;12.23;;;;;;;12.08;59.77;99665.44;4996885;28;20500;-86
2022/12/15 10:55:38;;;;;;;21.55;12.90;;;;;;;12.04;59.78;99651.44;4996556;28;20096;-86
2022/12/15 10:58:16;;;;;;;19.38;12.48;;;;;;;12.01;59.96;99657.00;4996681;28;20449;-86
2022/12/15 11:00:46;;;;;;;21.02;12.75;;;;;;;11.98;59.94;99650.09;4995167;28;20543;-84
2022/12/15 11:03:24;;;;;;;20.27;12.57;;;;;;;11.94;60.05;99639.72;4996649;28;20047;-84
2022/12/15 11:05:54;;;;;;;21.45;12.43;;;;;;;11.91;60.04;99645.31;4996223;28;20042;-84
2022/12/15 11:08:24;;;;;;;20.70;12.68;;;;;;;11.88;60.18;99646.41;4996407;28;20188;-84
2022/12/15 11:14:13;;;;;;;19.50;11.80;;;;;;;11.80;60.32;99656.81;4969733;28;20058;-84
2022/12/15 11:16:51;;;;;;;20.05;12.38;;;;;;;11.80;60.30;99672.84;4995960;28;20046;-84
2022/12/15 11:19:33;;;;;;;21.30;12.75;;;;;;;11.78;60.40;99664.06;4995925;28;20049;-84
2022/12/15 11:22:10;;;;;;;20.42;12.40;;;;;;;11.76;60.31;99655.28;4978909;28;20050;-84
2022/12/15 11:24:44;;;;;;;22.98;12.93;;;;;;;11.74;60.31;99663.41;4995962;28;20474;-84
2022/12/15 11:27:19;;;;;;;20.52;12.55;;;;;;;11.71;60.34;99657.47;4995933;28;20097;-84
2022/12/15 11:30:03;;;;;;;21.83;13.10;;;;;;;11.69;60.60;99654.06;4995884;28;20046;-84
2022/12/15 11:32:36;;;;;;;21.60;12.93;;;;;;;11.69;60.27;99648.72;4995604;28;20424;-84
2022/12/15 11:35:12;;;;;;;22.70;13.73;;;;;;;11.69;60.76;99649.56;4995457;28;20119;-84
2022/12/15 11:37:42;;;;;;;20.83;13.10;;;;;;;11.75;60.82;99650.91;4995721;28;20042;-84
2022/12/15 11:40:35;;;;;;;19.25;11.93;;;;;;;11.99;61.41;99662.47;4995723;28;20054;-84
2022/12/15 11:43:39;;;;;;;21.88;12.70;;;;;;;12.23;61.08;99664.25;4995619;28;20050;-84
2022/12/15 11:46:20;;;;;;;21.15;12.43;;;;;;;12.44;60.59;99659.91;4977939;28;20493;-85
2022/12/15 11:49:13;;;;;;;20.40;12.48;;;;;;;12.59;60.44;99655.22;4995143;28;20053;-85
2022/12/15 11:51:49;;;;;;;19.05;11.73;;;;;;;12.78;60.38;99660.84;4995573;28;20081;-85
2022/12/15 11:54:25;;;;;;;20.23;12.25;;;;;;;12.98;60.28;99669.13;4995865;28;20145;-85
2022/12/15 11:57:00;;;;;;;21.00;12.20;;;;;;;13.09;60.10;99675.31;4978130;28;20468;-85
2022/12/15 11:59:44;;;;;;;21.27;12.82;;;;;;;13.28;59.95;99679.25;4995134;28;20042;-85
2022/12/15 12:02:34;;;;;;;21.33;11.88;;;;;;;13.43;59.56;99688.72;4977832;28;20053;-85
2022/12/15 12:05:22;;;;;;;24.13;13.00;;;;;;;13.57;59.32;99685.78;4995577;28;20042;-85
2022/12/15 12:08:01;;;;;;;23.20;12.77;;;;;;;13.73;59.36;99686.22;4995106;28;20069;-85
2022/12/15 12:10:37;;;;;;;22.35;12.27;;;;;;;13.84;59.17;99679.97;4977144;28;20129;-86
2022/12/15 12:13:14;;;;;;;22.27;12.40;;;;;;;13.99;59.05;99677.84;4994585;28;20053;-85
2022/12/15 12:15:51;;;;;;;20.02;12.40;;;;;;;14.09;58.87;99670.75;4995410;28;20101;-85
2022/12/15 12:18:23;;;;;;;20.27;12.38;;;;;;;14.14;58.70;99668.53;4995107;28;20046;-85
2022/12/15 12:20:58;;;;;;;19.20;11.82;;;;;;;14.15;58.78;99667.53;4994918;28;20057;-85
2022/12/15 12:23:34;;;;;;;22.17;12.93;;;;;;;14.18;58.73;99674.47;4994934;28;20494;-85
2022/12/15 12:26:10;;;;;;;21.67;12.23;;;;;;;14.15;58.92;99672.06;4994419;28;20046;-85
2022/12/15 12:28:46;;;;;;;20.45;12.80;;;;;;;14.11;58.97;99663.44;4994850;28;20382;-84
2022/12/15 12:31:26;;;;;;;22.63;12.93;;;;;;;14.06;59.02;99665.63;4994236;28;20552;-85
2022/12/15 12:33:58;;;;;;;20.20;12.88;;;;;;;13.98;59.09;99646.63;4994892;28;20470;-84
2022/12/15 12:36:26;;;;;;;20.63;12.80;;;;;;;13.95;59.60;99647.75;4977009;28;20555;-84
2022/12/15 12:38:58;;;;;;;22.77;13.43;;;;;;;13.91;59.40;99650.84;4994555;28;20071;-85
2022/12/15 12:41:36;;;;;;;22.45;13.55;;;;;;;13.88;59.47;99645.72;4994375;28;20050;-85
2022/12/15 12:44:12;;;;;;;22.58;13.23;;;;;;;13.83;59.50;99655.97;4994771;28;20050;-85
2022/12/15 12:46:44;;;;;;;22.73;13.80;;;;;;;13.77;59.67;99660.00;4994041;28;20077;-85
2022/12/15 12:49:21;;;;;;;22.70;14.00;;;;;;;13.73;59.62;99659.44;4993893;28;20066;-85
2022/12/15 12:51:57;;;;;;;24.05;13.43;;;;;;;13.69;59.69;99660.63;4994018;28;20042;-84
2022/12/15 12:55:02;;;;;;;22.30;12.80;;;;;;;13.63;59.68;99661.16;4993916;28;20133;-85
2022/12/15 12:57:34;;;;;;;23.13;14.18;;;;;;;13.58;59.62;99663.34;4993957;28;20053;-84
2022/12/15 13:00:14;;;;;;;21.35;12.60;;;;;;;13.51;59.87;99655.94;4994023;28;20382;-84
2022/12/15 13:02:53;;;;;;;23.67;13.82;;;;;;;13.48;59.74;99659.72;4994197;28;20133;-85
2022/12/15 13:05:28;;;;;;;21.90;13.35;;;;;;;13.44;59.75;99669.00;4994271;28;20405;-85
2022/12/15 13:08:17;;;;;;;25.38;13.52;;;;;;;13.38;59.84;99685.56;4994020;28;20047;-85
2022/12/15 13:10:48;;;;;;;24.73;13.77;;;;;;;13.33;59.98;99682.41;4994105;28;20092;-85
2022/12/15 13:13:40;;;;;;;21.90;13.10;;;;;;;13.28;59.82;99684.59;4994362;28;20050;-85
2022/12/15 13:16:13;;;;;;;23.60;14.27;;;;;;;13.23;60.02;99698.38;4976392;28;20512;-85
2022/12/15 13:19:00;;;;;;;23.20;12.85;;;;;;;13.17;59.93;99696.13;4994331;28;20050;-85
2022/12/15 13:21:53;;;;;;;23.15;13.93;;;;;;;13.12;60.06;99699.19;4993747;28;20513;-85
2022/12/15 13:24:33;;;;;;;23.13;14.07;;;;;;;13.07;60.03;99687.97;4995033;28;20051;-86
2022/12/15 13:27:20;;;;;;;23.83;13.27;;;;;;;13.02;60.07;99695.50;4998138;28;20421;-84
2022/12/15 13:29:59;;;;;;;23.58;12.73;;;;;;;12.98;60.13;99688.72;4997811;28;20038;-84
2022/12/15 13:32:38;;;;;;;25.10;14.43;;;;;;;12.94;60.03;99684.59;4997925;28;20481;-84
2022/12/15 13:35:22;;;;;;;21.88;13.02;;;;;;;12.89;59.92;99684.06;4998100;28;20089;-84
2022/12/15 13:37:52;;;;;;;25.52;14.27;;;;;;;12.85;59.80;99687.97;4997768;28;20101;-84
2022/12/15 13:40:33;;;;;;;26.77;14.38;;;;;;;12.80;59.81;99685.66;4997595;28;20053;-83
2022/12/15 13:43:30;;;;;;;21.23;12.02;;;;;;;12.76;59.93;99699.41;4997473;28;20070;-86
2022/12/15 13:46:02;;;;;;;24.55;13.57;;;;;;;12.71;59.88;99698.91;4980221;28;20489;-84
2022/12/15 13:48:37;;;;;;;25.23;14.18;;;;;;;12.67;59.89;99702.78;4997457;28;20061;-84
2022/12/15 13:51:24;;;;;;;24.17;14.00;;;;;;;12.61;59.90;99699.59;4980637;28;20409;-84
2022/12/15 13:53:59;;;;;;;24.30;13.48;;;;;;;12.57;59.77;99700.81;4997256;28;20053;-84
2022/12/15 13:56:44;;;;;;;22.75;13.55;;;;;;;12.54;59.79;99705.53;4997350;28;20512;-84
2022/12/15 13:59:24;;;;;;;24.48;13.85;;;;;;;12.49;59.81;99708.59;4997702;28;20046;-84
2022/12/15 14:01:53;;;;;;;24.17;13.57;;;;;;;12.45;59.76;99701.78;4997386;28;20051;-84
2022/12/15 14:04:22;;;;;;;27.23;14.65;;;;;;;12.41;59.71;99702.97;4979787;28;20057;-84
2022/12/15 14:06:54;;;;;;;26.02;14.88;;;;;;;12.37;59.83;99714.03;4980162;28;20042;-84
2022/12/15 14:09:27;;;;;;;25.63;14.63;;;;;;;12.35;59.80;99700.75;4997036;28;20528;-84